CheckWX is a tool to help pilots better visualize weather data.  It is not intended as a substitute for an official pre-flight weather briefing.

10:21:24 UTC

LFRL TAF
Lanvéoc-Poulmic Air Base Airport
Lanvéoc/Poulmic, France
TAF LFRL 260500Z 2606/2706 05007KT CAVOK TEMPO 2606/2612 05010G20KT 4000 SHRA FEW009 SCT045CB PROB30 TEMPO 2606/2609 2000 TSRA BKN045CB BECMG 2610/2612 05017G27KT BECMG 2618/2621 05008KT

Jun-26@
06:00 UTC

Jun-26 @ 06:00 UTC

Jun-26@
10:00 UTC

Jun-26 @ 10:00 UTC

TAF LFRL 260500Z 2606/2706 05007KT CAVOK

Expired

Wind
  • 050° at 7 KTS
Conditions
No significant weather
Cloud Levels
  • No significant clouds

Jun-26@
06:00 UTC

Jun-26 @ 06:00 UTC

Jun-26@
09:00 UTC

Jun-26 @ 09:00 UTC

PROB30 TEMPO 2606/2609 2000 TSRA BKN045CB

Expired

Conditions
Thunderstorm, Rain
Cloud Levels
  • Broken at 4,500' AGL

Jun-26@
06:00 UTC

Jun-26 @ 06:00 UTC

Jun-26@
12:00 UTC

Jun-26 @ 12:00 UTC

TEMPO 2606/2612 05010G20KT 4000 SHRA FEW009 SCT045CB

Temporary

Temporary Changes expected for less than half the time period

Wind
  • 050° at 10 KTS
  • {Gusting to 20 KTS
Conditions
Rain
Cloud Levels
  • Few at 900' AGL
  • Scattered at 4,500' AGL

Jun-26@
10:00 UTC

Jun-26 @ 10:00 UTC

Jun-26@
18:00 UTC

Jun-26 @ 18:00 UTC

BECMG 2610/2612 05017G27KT

Becoming

Becoming Conditions expected by Wed, Jun 26, 2019 @ 12:00 UTC

Wind
  • 050° at 17 KTS
  • {Gusting to 27 KTS
Conditions
No significant weather
Cloud Levels
  • No significant clouds

Jun-26@
18:00 UTC

Jun-26 @ 18:00 UTC

Jun-27@
06:00 UTC

Jun-27 @ 06:00 UTC

BECMG 2618/2621 05008KT

Becoming

Becoming Conditions expected by Wed, Jun 26, 2019 @ 21:00 UTC

Wind
  • 050° at 8 KTS
Conditions
No significant weather
Cloud Levels
  • No significant clouds